< Cyclone 200501 2005 Season Cyclone 200503 >
Cyclone 200502 (RAYMOND)
General InformationTrack Information on Google MapsDetailed Wind InformationList of All Images || ResourceGoogle EarthGE AnimationAtom FeedGeoJSON
Detalied Best Track (Time Zone = UTC)
Year Month Day Hour Lat. Long. Pressure (hPa) Wind (kt) Class Image Chart
2004 12 30 00 -12.8 119.8 1004 20 2 Image --
2004 12 30 06 -13.2 120.2 1002 25 2 Image --
2004 12 30 12 -13.6 120.6 1002 25 2 Image --
2004 12 30 18 -13.9 120.9 1000 25 2 Image --
2004 12 31 00 -14.1 121.1 998 25 2 Image --
2004 12 31 06 -14.2 121.2 995 30 2 Image --
2004 12 31 12 -14.4 121.3 995 30 2 Image --
2004 12 31 18 -14.5 121.3 995 30 2 Image --
2005 1 1 00 -14.2 121.3 995 35 3 Image --
2005 1 1 06 -14.3 121.8 995 35 3 Image --
2005 1 1 12 -14.4 122.3 995 35 3 Image --
2005 1 1 18 -14.3 122.7 990 35 3 Image --
2005 1 2 00 -14.1 123.2 985 45 3 Image --
2005 1 2 06 -13.9 124.0 985 45 3 Image --
2005 1 2 12 -14.1 125.3 985 45 3 Image --
2005 1 2 15 -14.3 126.4 990 35 3 Image --
2005 1 2 18 -14.7 127.5 993 35 3 Image --
2005 1 3 00 -15.1 129.2 1000 30 2 Image --
2005 1 3 06 -16.4 130.2 999 20 2 Image --
2005 1 3 12 -17.2 130.7 999 15 2 Image --
2005 1 3 18 -17.4 132.0 999 15 2 Image --
2005 1 4 00 -17.7 134.2 999 15 2 Image --
2005 1 4 06 -18.3 134.5 997 15 2 Image --
2005 1 4 12 -18.4 136.5 999 15 2 Image --
2005 1 4 18 -17.9 137.0 999 15 2 Image --
2005 1 5 00 -17.4 137.5 1000 15 2 Image --
2005 1 5 06 -17.0 137.8 999 15 2 Image --
2005 1 5 12 -16.7 138.3 999 15 2 Image --
2005 1 5 18 -16.5 138.7 1000 15 2 Image --
2005 1 6 00 -16.1 139.1 1001 15 2 Image --
2005 1 6 06 -16.1 139.8 1001 15 2 Image --
2005 1 6 12 -16.7 140.1 1002 15 2 Image --
2005 1 6 18 -16.6 140.4 1002 15 2 Image --
2005 1 7 00 -16.2 140.6 1002 15 2 Image --
2005 1 7 06 -15.9 139.6 1001 15 2 Image --
2005 1 7 12 -15.8 139.4 1001 15 2 Image --
2005 1 7 18 -15.5 138.9 1001 15 2 Image --
2005 1 8 00 -15.4 138.9 1001 15 2 Image --
2005 1 8 06 -15.2 138.8 1001 15 2 Image --
2005 1 8 12 -15.1 138.7 1002 15 2 Image --
2005 1 8 18 -15.0 138.6 1002 15 2 Image --
2005 1 9 00 -14.5 138.2 1002 15 2 Image --
2005 1 9 06 -14.5 138.1 1002 15 2 Image --
2005 1 9 12 -14.5 137.6 1003 15 2 Image --
2005 1 9 18 -14.5 137.1 1003 15 2 Image --
2005 1 10 00 -14.6 136.6 1004 15 2 Image --
< Cyclone 200501 2005 Season Cyclone 200503 >

Help